createdAt,value
2019-03-17T00:00:31.982Z,31.6
2019-03-17T00:01:21.720Z,31.4
2019-03-17T00:02:12.850Z,31.3
2019-03-17T00:03:01.281Z,31.3
2019-03-17T00:03:52.145Z,31.2
2019-03-17T00:04:42.415Z,31.1
2019-03-17T00:05:32.532Z,31
2019-03-17T00:06:22.660Z,30.9
2019-03-17T00:07:12.389Z,30.8
2019-03-17T00:08:02.147Z,30.8
2019-03-17T00:08:53.296Z,30.6
2019-03-17T00:09:41.452Z,30.5
2019-03-17T00:10:33.422Z,30.4
2019-03-17T00:11:23.237Z,30.3
2019-03-17T00:12:12.719Z,30.2
2019-03-17T00:13:03.380Z,30.1
2019-03-17T00:13:53.945Z,29.9
2019-03-17T00:14:42.902Z,29.8
2019-03-17T00:15:33.783Z,29.7
2019-03-17T00:16:23.841Z,29.6
2019-03-17T00:17:13.159Z,29.4
2019-03-17T00:18:03.789Z,29.3
2019-03-17T00:18:53.004Z,29.2
2019-03-17T00:19:44.149Z,29.1
2019-03-17T00:20:33.890Z,28.9
2019-03-17T00:21:23.351Z,28.9
2019-03-17T00:22:14.427Z,28.8
2019-03-17T00:23:03.547Z,28.1
2019-03-17T00:23:54.639Z,28.1
2019-03-17T00:24:43.040Z,28.8
2019-03-17T00:25:33.926Z,29.4
2019-03-17T00:26:24.289Z,30
2019-03-17T00:27:14.404Z,30.5
2019-03-17T00:28:03.563Z,30.7
2019-03-17T00:28:54.221Z,30.9
2019-03-17T00:29:43.684Z,31.1
2019-03-17T00:30:33.989Z,31.3
2019-03-17T00:31:31.631Z,31.5
2019-03-17T00:32:13.928Z,31.8
2019-03-17T00:33:04.481Z,32
2019-03-17T00:33:54.616Z,32.2
2019-03-17T00:34:55.309Z,32.4
2019-03-17T00:35:34.679Z,32.6
2019-03-17T00:36:24.721Z,32.8
2019-03-17T00:37:15.604Z,32.9
2019-03-17T00:38:05.234Z,33.1
2019-03-17T00:38:54.341Z,33.2
2019-03-17T00:39:45.220Z,33.3
2019-03-17T00:40:35.113Z,33.2
2019-03-17T00:41:25.071Z,32.3
2019-03-17T00:42:15.766Z,32.2
2019-03-17T00:43:04.365Z,32.1
2019-03-17T00:43:56.148Z,31.9
2019-03-17T00:44:45.370Z,31.8
2019-03-17T00:45:35.100Z,31.6
2019-03-17T00:46:25.482Z,31.4
2019-03-17T00:47:17.975Z,31.4
2019-03-17T00:48:05.035Z,31.3
2019-03-17T00:48:56.183Z,31.3
2019-03-17T00:49:46.718Z,31.1
2019-03-17T00:50:36.602Z,30.3
2019-03-17T00:51:24.766Z,29.6
2019-03-17T00:52:15.236Z,29.1
2019-03-17T00:53:04.862Z,28.8
2019-03-17T00:53:55.757Z,28.5
2019-03-17T00:54:45.567Z,28.3
2019-03-17T00:55:35.334Z,28.2
2019-03-17T00:56:25.392Z,28.1
2019-03-17T00:57:15.510Z,28
2019-03-17T00:58:07.582Z,27.9
2019-03-17T00:59:46.671Z,27.8
2019-03-17T01:00:36.193Z,27.7
2019-03-17T01:01:25.789Z,27.5
2019-03-17T01:02:16.619Z,26.9
2019-03-17T01:03:06.652Z,26.5
2019-03-17T01:03:57.226Z,26.3
2019-03-17T01:04:59.030Z,26
2019-03-17T01:05:38.517Z,25.9
2019-03-17T01:06:27.157Z,25.8
2019-03-17T01:07:16.714Z,25.7
2019-03-17T01:08:07.293Z,25.6
2019-03-17T01:08:56.769Z,25.5
2019-03-17T01:09:47.647Z,25.4
2019-03-17T01:10:37.218Z,25.3
2019-03-17T01:11:26.122Z,26.5
2019-03-17T01:12:17.054Z,27.6
2019-03-17T01:13:07.077Z,28.6
2019-03-17T01:13:57.194Z,29.4
2019-03-17T01:14:47.733Z,30.1
2019-03-17T01:15:38.062Z,30.4
2019-03-17T01:16:28.223Z,30.8
2019-03-17T01:17:17.941Z,31.1
2019-03-17T01:18:08.106Z,31.3
2019-03-17T01:18:57.508Z,31.6
2019-03-17T01:19:47.823Z,31.9
2019-03-17T01:20:37.315Z,32.1
2019-03-17T01:21:28.223Z,32.4
2019-03-17T01:22:17.966Z,32.6
2019-03-17T01:23:07.290Z,32.8
2019-03-17T01:23:57.573Z,33
2019-03-17T01:24:49.013Z,33.2
2019-03-17T01:25:38.328Z,33.4
2019-03-17T01:26:27.519Z,33.3
2019-03-17T01:27:18.683Z,32.4
2019-03-17T01:28:08.263Z,32.1
2019-03-17T01:28:58.045Z,32
2019-03-17T01:29:46.939Z,31.8
2019-03-17T01:30:38.573Z,31.7
2019-03-17T01:31:28.932Z,31.6
2019-03-17T01:32:18.769Z,31.4
2019-03-17T01:33:08.510Z,31.3
2019-03-17T01:33:58.278Z,31.3
2019-03-17T01:34:48.592Z,31.1
2019-03-17T01:35:39.612Z,31
2019-03-17T01:36:28.508Z,30.9
2019-03-17T01:37:19.033Z,30.9
2019-03-17T01:38:09.257Z,30.9
2019-03-17T01:38:59.499Z,30.8
2019-03-17T01:39:48.865Z,30.8
2019-03-17T01:40:38.623Z,30.7
2019-03-17T01:41:27.642Z,30.6
2019-03-17T01:42:22.032Z,30.6
2019-03-17T01:43:08.949Z,30.5
2019-03-17T01:43:59.194Z,30.4
2019-03-17T01:44:49.676Z,30.3
2019-03-17T01:45:39.727Z,30.2
2019-03-17T01:46:29.857Z,30.1
2019-03-17T01:47:20.371Z,29.9
2019-03-17T01:48:10.386Z,29.8
2019-03-17T01:48:59.602Z,29.8
2019-03-17T01:49:49.948Z,29.6
2019-03-17T01:50:40.012Z,29.5
2019-03-17T01:51:30.094Z,29.4
2019-03-17T01:52:20.704Z,29.3
2019-03-17T01:53:10.294Z,29.1
2019-03-17T01:53:59.991Z,29
2019-03-17T01:54:50.652Z,28.3
2019-03-17T01:55:40.354Z,28.8
2019-03-17T01:56:29.881Z,29.5
2019-03-17T01:57:20.491Z,30.2
2019-03-17T01:58:10.261Z,30.8
2019-03-17T01:59:00.326Z,31
2019-03-17T01:59:50.443Z,31.3
2019-03-17T02:00:40.563Z,31.4
2019-03-17T02:01:30.846Z,31.6
2019-03-17T02:02:21.258Z,31.9
2019-03-17T02:03:10.684Z,32.1
2019-03-17T02:04:01.241Z,32.3
2019-03-17T02:04:50.474Z,32.6
2019-03-17T02:05:41.609Z,32.8
2019-03-17T02:06:30.896Z,32.9
2019-03-17T02:07:21.190Z,33.1
2019-03-17T02:08:10.961Z,33.3
2019-03-17T02:08:59.658Z,33.5
2019-03-17T02:09:51.715Z,33.5
2019-03-17T02:10:41.023Z,32.4
2019-03-17T02:11:31.504Z,32.4
2019-03-17T02:12:22.121Z,32.3
2019-03-17T02:13:11.687Z,32.2
2019-03-17T02:14:01.675Z,32.1
2019-03-17T02:14:51.770Z,32
2019-03-17T02:15:40.677Z,31.9
2019-03-17T02:16:31.623Z,31.8
2019-03-17T02:17:21.640Z,31.8
2019-03-17T02:18:11.423Z,31.8
2019-03-17T02:19:02.309Z,31.7
2019-03-17T02:19:52.382Z,31.6
2019-03-17T02:20:41.873Z,31.6
2019-03-17T02:21:32.762Z,31.5
2019-03-17T02:22:25.088Z,31.4
2019-03-17T02:23:11.572Z,31.4
2019-03-17T02:24:02.392Z,31.3
2019-03-17T02:24:52.443Z,31.2
2019-03-17T02:25:42.497Z,31.1
2019-03-17T02:26:32.572Z,31.1
2019-03-17T02:27:22.715Z,30.9
2019-03-17T02:28:13.599Z,30.8
2019-03-17T02:29:03.015Z,30.8
2019-03-17T02:29:53.367Z,30.6
2019-03-17T02:30:42.823Z,30.5
2019-03-17T02:31:33.587Z,30.4
2019-03-17T02:32:23.350Z,30.2
2019-03-17T02:33:12.313Z,30.1
2019-03-17T02:34:03.289Z,30
2019-03-17T02:34:52.987Z,29.9
2019-03-17T02:35:47.717Z,29.8
2019-03-17T02:36:33.574Z,29.6
2019-03-17T02:37:22.991Z,29.5
2019-03-17T02:38:13.814Z,28.6
2019-03-17T02:39:03.058Z,28.9
2019-03-17T02:39:53.371Z,29.6
2019-03-17T02:40:44.006Z,30.1
2019-03-17T02:41:33.745Z,30.8
2019-03-17T02:42:23.893Z,31.1
2019-03-17T02:43:13.365Z,31.2
2019-03-17T02:44:04.141Z,31.4
2019-03-17T02:44:53.543Z,31.5
2019-03-17T02:45:44.117Z,31.8
2019-03-17T02:46:34.160Z,31.9
2019-03-17T02:47:24.256Z,32.1
2019-03-17T02:48:12.966Z,32.3
2019-03-17T02:49:04.571Z,32.5
2019-03-17T02:49:54.884Z,32.8
2019-03-17T02:50:44.669Z,32.8
2019-03-17T02:51:34.768Z,33
2019-03-17T02:52:24.238Z,33.2
2019-03-17T02:53:14.280Z,33.3
2019-03-17T02:54:05.191Z,33.4
2019-03-17T02:54:55.244Z,32.4
2019-03-17T02:55:44.269Z,32.2
2019-03-17T02:56:35.070Z,32.1
2019-03-17T02:57:25.260Z,31.9
2019-03-17T02:58:15.255Z,31.8
2019-03-17T02:59:04.545Z,31.6
2019-03-17T02:59:54.461Z,31.6
2019-03-17T03:00:45.661Z,31.5
2019-03-17T03:01:35.467Z,31.4
2019-03-17T03:02:25.016Z,31.4
2019-03-17T03:03:15.897Z,31.3
2019-03-17T03:04:05.949Z,31.3
2019-03-17T03:07:36.868Z,31
2019-03-17T03:08:27.088Z,30.9
2019-03-17T03:09:17.486Z,30.9
2019-03-17T03:10:08.038Z,30.8
2019-03-17T03:10:57.333Z,30.7
2019-03-17T03:11:47.141Z,30.6
2019-03-17T03:12:38.025Z,30.4
2019-03-17T03:13:26.581Z,30.4
2019-03-17T03:14:17.469Z,30.3
2019-03-17T03:15:08.173Z,30.1
2019-03-17T03:15:58.068Z,30
2019-03-17T03:16:47.352Z,29.9
2019-03-17T03:17:38.000Z,29.8
2019-03-17T03:18:26.677Z,29.6
2019-03-17T03:19:17.815Z,29.6
2019-03-17T03:20:08.281Z,29.4
2019-03-17T03:20:58.042Z,29.3
2019-03-17T03:21:48.219Z,29
2019-03-17T03:22:38.754Z,28.4
2019-03-17T03:23:28.380Z,29.1
2019-03-17T03:24:18.757Z,29.8
2019-03-17T03:25:08.833Z,30.4
2019-03-17T03:25:58.617Z,31
2019-03-17T03:26:48.030Z,31.2
2019-03-17T03:27:38.534Z,31.4
2019-03-17T03:28:29.053Z,31.5
2019-03-17T03:29:19.076Z,31.8
2019-03-17T03:30:08.234Z,31.9
2019-03-17T03:30:59.097Z,32.1
2019-03-17T03:31:49.061Z,32.3
2019-03-17T03:32:39.634Z,32.6
2019-03-17T03:33:29.870Z,32.8
2019-03-17T03:34:19.342Z,32.9
2019-03-17T03:35:09.229Z,33.1
2019-03-17T03:36:16.973Z,33.3
2019-03-17T03:36:48.731Z,33.5
2019-03-17T03:37:39.422Z,33.3
2019-03-17T03:38:29.475Z,32.4
2019-03-17T03:39:19.270Z,32.3
2019-03-17T03:40:09.472Z,32.1
2019-03-17T03:40:59.100Z,32.1
2019-03-17T03:41:49.651Z,31.9
2019-03-17T03:42:39.752Z,31.9
2019-03-17T03:43:30.059Z,31.8
2019-03-17T03:44:19.668Z,31.7
2019-03-17T03:45:09.649Z,31.6
2019-03-17T03:45:59.106Z,31.6
2019-03-17T03:46:49.765Z,31.6
2019-03-17T03:47:40.265Z,31.5
2019-03-17T03:48:29.880Z,31.4
2019-03-17T03:49:19.746Z,31.3
2019-03-17T03:50:10.236Z,31.3
2019-03-17T03:51:00.358Z,31.2
2019-03-17T03:51:49.888Z,31.1
2019-03-17T03:52:39.684Z,31.1
2019-03-17T03:53:30.874Z,30.9
2019-03-17T03:54:20.624Z,30.9
2019-03-17T03:55:10.360Z,30.8
2019-03-17T03:56:00.166Z,30.7
2019-03-17T03:56:50.477Z,30.6
2019-03-17T03:57:40.946Z,30.4
2019-03-17T03:58:30.880Z,30.3
2019-03-17T03:59:20.105Z,30.2
2019-03-17T04:00:10.430Z,30.1
2019-03-17T04:01:00.831Z,29.9
2019-03-17T04:01:51.087Z,29.8
2019-03-17T04:02:41.520Z,29.7
2019-03-17T04:03:30.704Z,29.6
2019-03-17T04:04:20.150Z,29.4
2019-03-17T04:05:11.730Z,29
2019-03-17T04:06:01.076Z,28.6
2019-03-17T04:06:51.177Z,29.3
2019-03-17T04:07:41.597Z,30
2019-03-17T04:08:31.353Z,30.6
2019-03-17T04:09:21.602Z,31.1
2019-03-17T04:10:11.422Z,31.3
2019-03-17T04:11:01.530Z,31.5
2019-03-17T04:11:51.481Z,31.8
2019-03-17T04:12:41.658Z,31.9
2019-03-17T04:13:31.027Z,32.1
2019-03-17T04:14:22.056Z,32.3
2019-03-17T04:15:11.935Z,32.4
2019-03-17T04:16:02.104Z,32.6
2019-03-17T04:16:51.516Z,32.8
2019-03-17T04:17:42.235Z,32.9
2019-03-17T04:18:32.357Z,33.1
2019-03-17T04:19:22.322Z,33.3
2019-03-17T04:20:12.149Z,33.4
2019-03-17T04:21:02.510Z,32.8
2019-03-17T04:21:51.712Z,32.3
2019-03-17T04:22:42.211Z,32.1
2019-03-17T04:23:32.089Z,32.1
2019-03-17T04:24:23.118Z,31.9
2019-03-17T04:25:27.619Z,31.9
2019-03-17T04:26:02.863Z,31.8
2019-03-17T04:26:52.871Z,31.6
2019-03-17T04:27:42.125Z,31.6
2019-03-17T04:28:33.283Z,31.6
2019-03-17T04:29:22.451Z,31.5
2019-03-17T04:30:12.436Z,31.4
2019-03-17T04:31:03.470Z,30.6
2019-03-17T04:31:52.680Z,29.8
2019-03-17T04:32:43.231Z,29.4
2019-03-17T04:33:33.065Z,29.1
2019-03-17T04:34:22.811Z,28.8
2019-03-17T04:35:13.294Z,28.6
2019-03-17T04:36:03.791Z,28.5
2019-03-17T04:36:53.650Z,28.4
2019-03-17T04:37:43.126Z,28.3
2019-03-17T04:38:33.990Z,28.3
2019-03-17T04:39:23.528Z,28.2
2019-03-17T04:40:13.944Z,28.1
2019-03-17T04:41:03.501Z,28.1
2019-03-17T04:41:53.295Z,28.1
2019-03-17T04:42:43.597Z,28
2019-03-17T04:43:33.685Z,27.9
2019-03-17T04:44:29.134Z,27.9
2019-03-17T04:45:13.557Z,27.3
2019-03-17T04:46:03.460Z,28.1
2019-03-17T04:46:53.899Z,28.9
2019-03-17T04:47:44.252Z,29.7
2019-03-17T04:48:33.727Z,30.4
2019-03-17T04:49:24.913Z,30.8
2019-03-17T04:50:14.189Z,31.1
2019-03-17T04:51:04.214Z,31.2
2019-03-17T04:51:54.612Z,31.4
2019-03-17T04:52:44.616Z,31.6
2019-03-17T04:53:34.164Z,31.8
2019-03-17T04:54:24.722Z,32.1
2019-03-17T04:55:14.272Z,32.3
2019-03-17T04:56:04.591Z,32.5
2019-03-17T04:56:54.335Z,32.7
2019-03-17T04:57:44.751Z,32.8
2019-03-17T04:58:34.795Z,33
2019-03-17T04:59:25.159Z,33.2
2019-03-17T05:00:14.402Z,33.3
2019-03-17T05:01:04.948Z,33
2019-03-17T05:01:55.566Z,32.3
2019-03-17T05:02:45.603Z,32.1
2019-03-17T05:03:35.656Z,31.9
2019-03-17T05:04:24.955Z,31.8
2019-03-17T05:05:14.998Z,31.7
2019-03-17T05:06:05.573Z,31.6
2019-03-17T05:07:00.526Z,31.5
2019-03-17T05:07:45.466Z,31.4
2019-03-17T05:08:36.033Z,31.4
2019-03-17T05:09:25.783Z,31.3
2019-03-17T05:10:16.164Z,31.3
2019-03-17T05:11:05.176Z,30.9
2019-03-17T05:11:55.678Z,30.1
2019-03-17T05:12:46.020Z,29.4
2019-03-17T05:13:35.553Z,29.1
2019-03-17T05:14:25.653Z,28.9
2019-03-17T05:15:16.273Z,28.7
2019-03-17T05:16:05.710Z,28.6
2019-03-17T05:16:55.819Z,28.4
2019-03-17T05:17:46.080Z,28.3
2019-03-17T05:18:35.889Z,28.2
2019-03-17T05:19:26.491Z,28.1
2019-03-17T05:20:16.600Z,28.1
2019-03-17T05:21:05.850Z,28
2019-03-17T05:21:56.460Z,27.4
2019-03-17T05:22:46.557Z,27
2019-03-17T05:23:36.805Z,26.7
2019-03-17T05:24:26.416Z,26.5
2019-03-17T05:25:16.482Z,26.3
2019-03-17T05:26:07.087Z,26.2
2019-03-17T05:26:56.739Z,26.1
2019-03-17T05:27:46.880Z,26
2019-03-17T05:28:36.409Z,25.9
2019-03-17T05:29:27.100Z,25.9
2019-03-17T05:30:16.664Z,25.9
2019-03-17T05:31:05.718Z,25.8
2019-03-17T05:31:57.394Z,25.7
2019-03-17T05:32:47.202Z,26.9
2019-03-17T05:33:37.766Z,28.1
2019-03-17T05:34:27.115Z,29
2019-03-17T05:35:16.870Z,29.9
2019-03-17T05:36:06.969Z,30.4
2019-03-17T05:37:11.794Z,30.8
2019-03-17T05:37:47.057Z,31.2
2019-03-17T05:38:37.684Z,31.4
2019-03-17T05:39:26.969Z,31.8
2019-03-17T05:40:17.256Z,32
2019-03-17T05:41:07.541Z,32.4
2019-03-17T05:41:57.784Z,32.6
2019-03-17T05:42:48.591Z,32.9
2019-03-17T05:43:37.648Z,33.1
2019-03-17T05:44:28.589Z,33.4
2019-03-17T05:45:18.586Z,33.6
2019-03-17T05:46:08.174Z,33.8
2019-03-17T05:46:57.907Z,33.6
2019-03-17T05:47:48.249Z,32.8
2019-03-17T05:48:38.007Z,32.6
2019-03-17T05:49:28.073Z,32.5
2019-03-17T05:50:18.953Z,32.3
2019-03-17T05:51:08.758Z,32.1
2019-03-17T05:51:59.096Z,32
2019-03-17T05:52:48.293Z,31.9
2019-03-17T05:53:41.636Z,31.8
2019-03-17T05:54:29.146Z,31.7
2019-03-17T05:55:19.067Z,31.6
2019-03-17T05:56:09.191Z,31.6
2019-03-17T05:56:59.046Z,31.4
2019-03-17T05:57:49.273Z,31.4
2019-03-17T05:58:39.333Z,31.3
2019-03-17T05:59:29.173Z,31.3
2019-03-17T06:00:18.875Z,31.1
2019-03-17T06:01:08.633Z,31.1
2019-03-17T06:01:59.031Z,30.9
2019-03-17T06:02:48.798Z,30.8
2019-03-17T06:05:36.777Z,30.4
2019-03-17T06:06:26.462Z,30.3
2019-03-17T06:07:26.084Z,30.1
2019-03-17T06:08:06.904Z,30
2019-03-17T06:08:57.292Z,29.9
2019-03-17T06:09:46.157Z,29.7
2019-03-17T06:10:36.477Z,29.6
2019-03-17T06:11:26.554Z,29.4
2019-03-17T06:12:16.602Z,29.3
2019-03-17T06:13:07.801Z,29.2
2019-03-17T06:13:59.085Z,29.1
2019-03-17T06:14:47.429Z,28.3
2019-03-17T06:15:37.139Z,28.6
2019-03-17T06:16:26.626Z,29.4
2019-03-17T06:17:17.783Z,30.1
2019-03-17T06:18:07.366Z,30.7
2019-03-17T06:18:57.637Z,30.9
2019-03-17T06:19:47.980Z,31.3
2019-03-17T06:20:37.746Z,31.5
2019-03-17T06:21:28.398Z,31.8
2019-03-17T06:22:17.364Z,32.1
2019-03-17T06:23:07.751Z,32.4
2019-03-17T06:23:57.146Z,32.7
2019-03-17T06:24:47.859Z,32.9
2019-03-17T06:25:38.342Z,33.2
2019-03-17T06:26:28.166Z,33.4
2019-03-17T06:27:18.253Z,33.6
2019-03-17T06:28:08.569Z,33.8
2019-03-17T06:28:58.416Z,32.8
2019-03-17T06:29:48.156Z,32.6
2019-03-17T06:30:38.578Z,32.5
2019-03-17T06:31:29.096Z,32.3
2019-03-17T06:32:18.339Z,32.2
2019-03-17T06:33:08.628Z,32.1
2019-03-17T06:33:59.054Z,31.9
2019-03-17T06:34:48.524Z,31.8
2019-03-17T06:35:38.812Z,31.7
2019-03-17T06:36:29.508Z,31.6
2019-03-17T06:37:31.984Z,31.6
2019-03-17T06:38:08.169Z,31.4
2019-03-17T06:38:58.773Z,31.4
2019-03-17T06:39:48.546Z,31.3
2019-03-17T06:40:38.651Z,31.2
2019-03-17T06:41:29.233Z,31.1
2019-03-17T06:42:19.283Z,31.1
2019-03-17T06:43:09.370Z,31.1
2019-03-17T06:43:59.135Z,31
2019-03-17T06:44:49.493Z,30.9
2019-03-17T06:45:39.238Z,30.9
2019-03-17T06:46:28.460Z,30.8
2019-03-17T06:47:19.433Z,30.7
2019-03-17T06:48:09.695Z,30.6
2019-03-17T06:49:00.048Z,30.4
2019-03-17T06:49:49.560Z,30.3
2019-03-17T06:50:39.340Z,30.2
2019-03-17T06:51:30.338Z,30.1
2019-03-17T06:52:19.993Z,29.9
2019-03-17T06:53:10.075Z,29.8
2019-03-17T06:54:04.085Z,29.7
2019-03-17T06:54:50.190Z,29.5
2019-03-17T06:55:40.217Z,29.4
2019-03-17T06:56:30.007Z,28.6
2019-03-17T06:57:19.793Z,29.1
2019-03-17T06:58:09.029Z,29.9
2019-03-17T06:58:59.690Z,30.6
2019-03-17T06:59:50.555Z,31.1
2019-03-17T07:00:40.028Z,31.4
2019-03-17T07:01:30.662Z,31.8
2019-03-17T07:02:20.978Z,32.1
2019-03-17T07:03:10.757Z,32.4
2019-03-17T07:05:36.639Z,33.3
2019-03-17T07:06:26.424Z,33.6
2019-03-17T07:07:16.211Z,33.9
2019-03-17T07:08:07.329Z,34.1
2019-03-17T07:08:57.411Z,33.8
2019-03-17T07:09:46.654Z,32.9
2019-03-17T07:10:36.728Z,32.8
2019-03-17T07:11:26.571Z,32.8
2019-03-17T07:12:16.649Z,32.3
2019-03-17T07:13:07.457Z,31.9
2019-03-17T07:13:57.271Z,31.6
2019-03-17T07:14:47.861Z,31.3
2019-03-17T07:15:37.081Z,31.2
2019-03-17T07:16:26.896Z,31.1
2019-03-17T07:17:19.779Z,31
2019-03-17T07:18:06.768Z,30.9
2019-03-17T07:18:57.598Z,30.9
2019-03-17T07:19:46.839Z,30.8
2019-03-17T07:20:38.072Z,30.8
2019-03-17T07:21:27.768Z,30.8
2019-03-17T07:22:17.881Z,30.7
2019-03-17T07:23:07.411Z,30.7
2019-03-17T07:23:57.556Z,30.6
2019-03-17T07:24:46.995Z,30.5
2019-03-17T07:25:37.308Z,30.4
2019-03-17T07:26:27.651Z,30.4
2019-03-17T07:27:16.975Z,30.3
2019-03-17T07:28:06.940Z,30.1
2019-03-17T07:28:58.600Z,30.1
2019-03-17T07:29:51.306Z,30
2019-03-17T07:30:38.430Z,29.9
2019-03-17T07:31:28.241Z,29.8
2019-03-17T07:32:18.768Z,29.7
2019-03-17T07:33:08.378Z,29.6
2019-03-17T07:33:59.460Z,29.5
2019-03-17T07:34:48.468Z,29.4
2019-03-17T07:35:39.060Z,29.3
2019-03-17T07:36:28.830Z,29.1
2019-03-17T07:37:18.621Z,29
2019-03-17T07:38:08.962Z,28.9
2019-03-17T07:38:57.647Z,28.8
2019-03-17T07:39:48.520Z,28.7
2019-03-17T07:40:39.214Z,28.6
2019-03-17T07:41:29.422Z,28.5
2019-03-17T07:42:19.252Z,28.4
2019-03-17T07:43:09.298Z,28.3
2019-03-17T07:44:13.783Z,28.3
2019-03-17T07:44:49.224Z,28.1
2019-03-17T07:45:39.811Z,28
2019-03-17T07:46:44.327Z,27.9
2019-03-17T07:47:19.664Z,27.8
2019-03-17T07:48:09.965Z,27.7
2019-03-17T07:49:00.327Z,27.6
2019-03-17T07:49:50.148Z,27.5
2019-03-17T07:50:39.145Z,27.4
2019-03-17T07:51:29.942Z,27.4
2019-03-17T07:52:19.794Z,27.3
2019-03-17T07:53:09.194Z,27.1
2019-03-17T07:54:00.089Z,27.1
2019-03-17T07:54:49.346Z,27
2019-03-17T07:55:39.534Z,26.9
2019-03-17T07:56:30.569Z,26.8
2019-03-17T07:57:19.586Z,26.8
2019-03-17T07:58:09.627Z,26.7
2019-03-17T07:58:59.261Z,26.6
2019-03-17T07:59:50.314Z,26.5
2019-03-17T08:00:39.248Z,26.4
2019-03-17T08:01:30.738Z,26.4
2019-03-17T08:02:19.741Z,26.3
2019-03-17T08:03:10.141Z,26.3
2019-03-17T08:04:01.096Z,26.2
2019-03-17T08:04:54.228Z,26.1
2019-03-17T08:05:40.951Z,26.1
2019-03-17T08:06:30.759Z,26
2019-03-17T08:07:23.171Z,25.9
2019-03-17T08:08:17.275Z,25.9
2019-03-17T08:09:01.462Z,25.8
2019-03-17T08:09:52.069Z,25.8
2019-03-17T08:10:56.131Z,25.6
2019-03-17T08:11:31.681Z,25.6
2019-03-17T08:12:21.117Z,25.6
2019-03-17T08:13:11.478Z,25.5
2019-03-17T08:14:00.701Z,25.4
2019-03-17T08:14:51.586Z,25.4
2019-03-17T08:15:41.485Z,25.3
2019-03-17T08:16:31.437Z,25.3
2019-03-17T08:17:22.035Z,25.3
2019-03-17T08:18:11.802Z,25.2
2019-03-17T08:19:02.183Z,25.1
2019-03-17T08:19:51.740Z,25.1
2019-03-17T08:20:41.712Z,25
2019-03-17T08:21:32.040Z,25
2019-03-17T08:22:21.875Z,24.9
2019-03-17T08:23:12.193Z,24.9
2019-03-17T10:06:35.742Z,21.6
2019-03-17T10:07:25.834Z,21.6
2019-03-17T10:08:16.629Z,21.6
2019-03-17T10:09:07.046Z,21.6
2019-03-17T10:09:56.728Z,21.6
2019-03-17T10:10:46.296Z,21.6
2019-03-17T10:11:36.129Z,21.6
2019-03-17T10:12:27.036Z,21.6
2019-03-17T10:13:17.606Z,21.6
2019-03-17T10:14:07.029Z,21.6
2019-03-17T10:14:57.399Z,21.6
2019-03-17T10:15:46.589Z,21.5
2019-03-17T10:16:36.969Z,21.5
2019-03-17T10:17:27.398Z,21.5
2019-03-17T10:18:17.386Z,21.5
2019-03-17T10:19:07.413Z,21.4
2019-03-17T10:19:56.413Z,21.5
2019-03-17T10:20:45.473Z,21.5
2019-03-17T10:21:37.669Z,21.5
2019-03-17T10:22:27.981Z,21.5
2019-03-17T10:23:17.133Z,21.4
2019-03-17T10:24:07.513Z,21.4
2019-03-17T10:24:57.795Z,21.4
2019-03-17T10:25:47.360Z,21.4
2019-03-17T10:26:37.645Z,21.4
2019-03-17T10:27:27.745Z,21.4
2019-03-17T10:28:17.888Z,21.4
2019-03-17T10:29:21.958Z,21.4
2019-03-17T10:29:58.800Z,21.4
2019-03-17T10:30:48.501Z,21.4
2019-03-17T10:31:38.843Z,21.4
2019-03-17T10:32:28.345Z,21.4
2019-03-17T10:33:18.688Z,21.4
2019-03-17T10:34:08.510Z,21.3
2019-03-17T10:34:58.111Z,21.3
2019-03-17T10:35:48.873Z,21.3
2019-03-17T10:36:38.382Z,21.3
2019-03-17T10:37:28.454Z,21.3
2019-03-17T10:38:19.040Z,21.3
2019-03-17T10:39:19.938Z,21.3
2019-03-17T10:39:59.417Z,21.3
2019-03-17T10:40:48.502Z,21.3
2019-03-17T10:41:37.968Z,21.3
2019-03-17T10:42:28.665Z,21.3
2019-03-17T10:43:18.973Z,21.3
2019-03-17T10:44:09.192Z,21.3
2019-03-17T10:44:57.659Z,21.3
2019-03-17T10:45:49.099Z,21.3
2019-03-17T10:46:38.342Z,21.3
2019-03-17T10:47:29.197Z,21.3
2019-03-17T10:48:18.357Z,21.3
2019-03-17T10:49:08.600Z,21.2
2019-03-17T10:50:00.144Z,21.2
2019-03-17T10:50:57.461Z,21.3
2019-03-17T10:51:39.534Z,21.2
2019-03-17T10:52:29.429Z,21.3
2019-03-17T10:53:19.349Z,21.3
2019-03-17T10:54:09.209Z,21.3
2019-03-17T10:54:59.226Z,21.3
2019-03-17T10:55:49.264Z,21.2
2019-03-17T10:56:39.334Z,21.2
2019-03-17T10:57:29.663Z,21.2
2019-03-17T10:58:19.747Z,21.2
2019-03-17T10:59:09.771Z,21.2
2019-03-17T11:03:19.516Z,21.2
2019-03-17T11:13:21.015Z,21.1
2019-03-17T11:14:10.671Z,21.1
2019-03-17T11:15:00.873Z,21.1
2019-03-17T11:15:51.447Z,21.1
2019-03-17T11:16:41.527Z,21.1
2019-03-17T11:17:32.124Z,21.1
2019-03-17T11:18:21.845Z,21.1
2019-03-17T11:19:11.693Z,21.1
2019-03-17T11:20:00.798Z,21.1
2019-03-17T11:20:51.068Z,21.1
2019-03-17T11:21:41.642Z,21
2019-03-17T11:22:30.256Z,21.1
2019-03-17T11:23:22.040Z,21.1
2019-03-17T11:24:10.980Z,21
2019-03-17T11:25:01.982Z,21.1
2019-03-17T11:25:51.649Z,21.1
2019-03-17T11:26:41.547Z,21
2019-03-17T11:27:32.598Z,21
2019-03-17T11:28:22.740Z,21
2019-03-17T11:29:12.772Z,21
2019-03-17T11:30:02.802Z,21
2019-03-17T11:30:52.604Z,21
2019-03-17T11:31:42.339Z,20.9
2019-03-17T11:32:32.901Z,21
2019-03-17T11:33:22.468Z,21
2019-03-17T11:34:12.555Z,21
2019-03-17T11:35:02.587Z,21
2019-03-17T11:35:53.177Z,20.9
2019-03-17T11:36:42.757Z,20.9
2019-03-17T11:37:33.114Z,20.9
2019-03-17T11:38:22.606Z,20.9
2019-03-17T11:39:13.010Z,20.9
2019-03-17T11:40:02.481Z,20.9
2019-03-17T11:40:52.711Z,20.9
2019-03-17T11:41:42.754Z,20.9
2019-03-17T11:42:33.161Z,20.9
2019-03-17T11:43:23.463Z,20.9
2019-03-17T11:44:13.603Z,20.9
2019-03-17T11:45:03.333Z,20.9
2019-03-17T11:45:53.949Z,20.9
2019-03-17T11:46:42.838Z,20.9
2019-03-17T11:47:32.991Z,20.9
2019-03-17T11:48:24.066Z,20.9
2019-03-17T11:49:13.563Z,20.9
2019-03-17T11:50:04.026Z,20.9
2019-03-17T11:50:53.901Z,20.9
2019-03-17T11:51:44.384Z,20.9
2019-03-17T11:52:33.523Z,20.9
2019-03-17T11:53:23.886Z,20.9
2019-03-17T11:54:14.291Z,20.9
2019-03-17T11:55:04.388Z,20.9
2019-03-17T11:55:54.108Z,20.9
2019-03-17T11:56:43.308Z,20.9
2019-03-17T11:57:33.910Z,20.9
2019-03-17T11:58:25.055Z,20.9
2019-03-17T11:59:14.873Z,20.9
2019-03-17T12:00:04.688Z,20.9
2019-03-17T12:00:53.882Z,20.9
2019-03-17T12:01:43.940Z,20.9
2019-03-17T12:02:34.382Z,20.9
2019-03-17T12:03:24.031Z,20.9
2019-03-17T12:04:14.376Z,20.9
2019-03-17T12:06:36.421Z,20.8
2019-03-17T12:07:26.260Z,20.8
2019-03-17T12:08:16.631Z,20.8
2019-03-17T12:09:09.517Z,20.8
2019-03-17T12:09:57.913Z,20.8
2019-03-17T12:10:46.714Z,20.8
2019-03-17T12:11:35.979Z,20.9
2019-03-17T12:12:41.991Z,20.8
2019-03-17T12:13:16.328Z,20.9
2019-03-17T12:14:10.337Z,20.8
2019-03-17T12:14:56.077Z,20.8
2019-03-17T12:15:47.078Z,20.8
2019-03-17T12:16:36.778Z,20.8
2019-03-17T12:17:27.204Z,20.8
2019-03-17T12:18:16.721Z,20.8
2019-03-17T12:19:07.856Z,20.8
2019-03-17T12:19:57.513Z,20.8
2019-03-17T12:20:47.433Z,20.8
2019-03-17T12:21:37.538Z,20.8
2019-03-17T12:22:27.520Z,20.8
2019-03-17T12:23:16.218Z,20.8
2019-03-17T12:24:07.425Z,20.8
2019-03-17T12:24:57.930Z,20.8
2019-03-17T12:25:47.780Z,20.8
2019-03-17T12:26:38.045Z,20.8
2019-03-17T12:27:28.398Z,20.8
2019-03-17T12:28:18.653Z,20.8
2019-03-17T12:29:07.787Z,20.8
2019-03-17T12:29:58.095Z,20.8
2019-03-17T12:30:47.595Z,20.8
2019-03-17T12:31:38.778Z,20.8
2019-03-17T12:32:28.025Z,20.8
2019-03-17T12:33:18.433Z,20.8
2019-03-17T12:34:08.022Z,20.8
2019-03-17T12:34:58.422Z,20.8
2019-03-17T12:35:48.543Z,20.8
2019-03-17T12:36:38.303Z,20.8
2019-03-17T12:37:27.555Z,20.8
2019-03-17T12:38:18.438Z,20.8
2019-03-17T12:39:09.042Z,20.8
2019-03-17T12:40:10.622Z,20.8
2019-03-17T12:40:48.357Z,20.8
2019-03-17T12:41:41.340Z,20.8
2019-03-17T12:42:28.749Z,20.8
2019-03-17T12:43:19.042Z,20.8
2019-03-17T12:44:09.179Z,20.8
2019-03-17T12:44:58.627Z,20.8
2019-03-17T12:45:49.230Z,20.8
2019-03-17T12:46:39.264Z,20.8
2019-03-17T12:47:28.491Z,20.8
2019-03-17T12:48:19.131Z,20.8
2019-03-17T12:49:08.912Z,20.8
2019-03-17T12:49:59.251Z,20.8
2019-03-17T12:50:49.614Z,20.8
2019-03-17T12:51:39.351Z,20.8
2019-03-17T12:52:29.444Z,20.8
2019-03-17T12:53:19.227Z,20.8
2019-03-17T12:54:09.097Z,20.8
2019-03-17T12:54:59.594Z,20.8
2019-03-17T12:55:49.421Z,20.8
2019-03-17T12:56:39.766Z,20.9
2019-03-17T12:57:28.951Z,20.9
2019-03-17T12:58:22.956Z,20.9
2019-03-17T12:59:09.394Z,20.9
2019-03-17T13:00:00.376Z,20.9
2019-03-17T13:00:49.753Z,20.9
2019-03-17T13:01:39.326Z,20.8
2019-03-17T13:02:29.967Z,20.9
2019-03-17T13:03:20.223Z,20.8
2019-03-17T13:04:10.873Z,20.8
2019-03-17T13:04:59.756Z,20.8
2019-03-17T13:05:50.678Z,20.8
2019-03-17T13:06:40.526Z,20.8
2019-03-17T13:07:30.490Z,20.8
2019-03-17T13:08:20.585Z,20.8
2019-03-17T13:09:10.367Z,20.8
2019-03-17T13:10:00.908Z,20.8
2019-03-17T13:10:51.381Z,20.8
2019-03-17T13:11:40.556Z,20.8
2019-03-17T13:12:31.473Z,20.8